Portada
METAR-TAF:

METAR-TAF

Aeropuertos :

Madrid-Cuatro Vientos, España

Aeropuerto de Madrid-Cuatro Vientos

latitud: 40-23N, longitud: 003-47W, altitud: 690 m

Observación

El informe se hizo hace 2 horas y 42 minutos, a las 20:00 UTC
Viento 6 kt del oeste-suroeste
Temperatura 27°C
Humedad 20%
Presión 1016 hPa
Visibilidad 10 km o más
sin nubes por debajo de 1500 m y sin presencia de cumulonimbus.

METAR: LEVS 222000Z 24006KT CAVOK 27/02 Q1016

Hora: 00:42 (22:42 UTC)

Pronóstico

El informe se hizo hace 5 horas y 42 minutos, a las 17:00 UTC
Pronóstico válido del 22 a las 18 UTC al 23 a las 03 UTC
Viento 10 kt del suroeste
Visibilidad 10 km o más
sin nubes por debajo de 1500 m y sin presencia de cumulonimbus.
Evolucionando progresivamente
del 22 a las 20 UTC al 22 a las 22 UTC
Viento 5 kt con dirección variable

TAF: LEVS 221700Z 2218/2303 23010KT CAVOK BECMG 2220/2222 VRB05KT

Observaciones y pronósticos meteorológicos de más de 4000 aeropuertos (mensajes METAR y TAF).

Los puntos amarillos y rojos representan las estaciones disponibles.

Ponga el ratón en el punto deseado para ver el nombre de la estación.

Haga clic para ver las observaciones y los pronósticos meteorológicos.

Para cambiar el mapa : haga clic en los botones verdes con una cruz de color negro para hacer un zoom, en el botón verde con un guión para alejar o en las flechas verdes para mapas adyacentes.


METAR-TAF: